ARG1430 SAZN-SAVC
Flight info
| Callsign | ARG1430 |
|---|---|
| Flight time | 1h 13m |
| Altitude | 37000 |
| Route | ILTOS3C ILTOS DCT SIMOT UT105 PUBLO PUBLO2U |
| Aircraft | B738/M-SDFGHILORVW/S |
Departure
| Time | 2026-04-11 19:23 |
|---|---|
| Airport | Presidente Perón International Airport (SAZN) |
Arrival
| Time | 2026-04-11 20:37 |
|---|---|
| Airport | General Enrique Mosconi International Airport (SAVC) |
| Time | Latitude | Longitude | Altitude | Speed | Heading |
|---|---|---|---|---|---|
| 2026-04-11 19:03 | -38.95150 | -68.14066 | 896 ft | 0 kts | 179° |
| 2026-04-11 19:03 | -38.95149 | -68.14112 | 895 ft | 0 kts | 179° |
| 2026-04-11 19:04 | -38.95142 | -68.14112 | 896 ft | 0 kts | 179° |
| 2026-04-11 19:04 | -38.95146 | -68.14116 | 896 ft | 0 kts | 179° |
| 2026-04-11 19:16 | -38.95137 | -68.14116 | 896 ft | 2 kts | 179° |
| 2026-04-11 19:16 | -38.95125 | -68.14116 | 896 ft | 0 kts | 179° |
| 2026-04-11 19:16 | -38.95113 | -68.14118 | 896 ft | 2 kts | 154° |
| 2026-04-11 19:17 | -38.95101 | -68.14130 | 896 ft | 2 kts | 124° |
| 2026-04-11 19:17 | -38.95096 | -68.14146 | 896 ft | 1 kts | 96° |
| 2026-04-11 19:17 | -38.95096 | -68.14157 | 896 ft | 0 kts | 91° |
| 2026-04-11 19:20 | -38.95096 | -68.14156 | 896 ft | 1 kts | 90° |
| 2026-04-11 19:20 | -38.95088 | -68.14133 | 896 ft | 3 kts | 46° |
| 2026-04-11 19:21 | -38.95071 | -68.14122 | 896 ft | 5 kts | 17° |
| 2026-04-11 19:21 | -38.95026 | -68.14116 | 896 ft | 5 kts | 358° |
| 2026-04-11 19:21 | -38.94998 | -68.14117 | 896 ft | 7 kts | 358° |
| 2026-04-11 19:21 | -38.94951 | -68.14119 | 896 ft | 9 kts | 358° |
| 2026-04-11 19:22 | -38.94915 | -68.14127 | 896 ft | 6 kts | 322° |
| 2026-04-11 19:22 | -38.94906 | -68.14287 | 896 ft | 43 kts | 270° |
| 2026-04-11 19:22 | -38.94906 | -68.14692 | 896 ft | 91 kts | 271° |
| 2026-04-11 19:22 | -38.94902 | -68.15779 | 899 ft | 151 kts | 269° |
| 2026-04-11 19:23 | -38.94896 | -68.17229 | 1368 ft | 165 kts | 269° |
| 2026-04-11 19:23 | -38.94905 | -68.18701 | 2015 ft | 170 kts | 268° |
| 2026-04-11 19:23 | -38.94934 | -68.20230 | 2584 ft | 177 kts | 269° |
| 2026-04-11 19:23 | -38.94892 | -68.21854 | 2905 ft | 191 kts | 271° |
| 2026-04-11 19:24 | -38.94872 | -68.23665 | 3026 ft | 219 kts | 269° |
| 2026-04-11 19:24 | -38.95224 | -68.25637 | 3349 ft | 238 kts | 238° |
| 2026-04-11 19:24 | -38.97032 | -68.27318 | 3939 ft | 259 kts | 189° |
| 2026-04-11 19:24 | -38.98234 | -68.27302 | 4366 ft | 263 kts | 166° |
| 2026-04-11 19:25 | -39.00478 | -68.26091 | 5286 ft | 270 kts | 159° |
| 2026-04-11 19:25 | -39.01874 | -68.25587 | 5853 ft | 273 kts | 167° |
| 2026-04-11 19:25 | -39.03731 | -68.25050 | 6610 ft | 276 kts | 166° |
| 2026-04-11 19:25 | -39.04962 | -68.24653 | 7109 ft | 278 kts | 165° |
| 2026-04-11 19:26 | -39.06831 | -68.24032 | 7867 ft | 280 kts | 165° |
| 2026-04-11 19:26 | -39.08564 | -68.23453 | 8559 ft | 283 kts | 165° |
| 2026-04-11 19:26 | -39.09954 | -68.22984 | 9037 ft | 289 kts | 166° |
| 2026-04-11 19:26 | -39.11929 | -68.22312 | 9597 ft | 300 kts | 166° |
| 2026-04-11 19:27 | -39.13942 | -68.21630 | 10289 ft | 306 kts | 166° |
| 2026-04-11 19:27 | -39.16075 | -68.20909 | 10466 ft | 331 kts | 166° |
| 2026-04-11 19:27 | -39.18358 | -68.20133 | 10730 ft | 351 kts | 165° |
| 2026-04-11 19:27 | -39.21545 | -68.19048 | 11486 ft | 362 kts | 165° |
| 2026-04-11 19:28 | -39.23162 | -68.18497 | 11894 ft | 367 kts | 165° |
| 2026-04-11 19:28 | -39.25653 | -68.17647 | 12581 ft | 371 kts | 165° |
| 2026-04-11 19:28 | -39.28153 | -68.16794 | 13241 ft | 376 kts | 166° |
| 2026-04-11 19:28 | -39.30679 | -68.15931 | 13904 ft | 380 kts | 166° |
| 2026-04-11 19:29 | -39.34096 | -68.14763 | 14784 ft | 386 kts | 166° |
| 2026-04-11 19:29 | -39.35814 | -68.14176 | 15221 ft | 389 kts | 166° |
| 2026-04-11 19:29 | -39.38424 | -68.13282 | 15866 ft | 392 kts | 167° |
| 2026-04-11 19:29 | -39.41077 | -68.12374 | 16504 ft | 396 kts | 167° |
| 2026-04-11 19:30 | -39.44637 | -68.11342 | 17323 ft | 399 kts | 174° |
| 2026-04-11 19:30 | -39.46477 | -68.11056 | 17741 ft | 400 kts | 177° |
| 2026-04-11 19:30 | -39.50184 | -68.10671 | 18564 ft | 403 kts | 179° |
| 2026-04-11 19:30 | -39.52033 | -68.10478 | 18963 ft | 404 kts | 179° |
| 2026-04-11 19:31 | -39.55774 | -68.10093 | 19761 ft | 407 kts | 179° |
| 2026-04-11 19:31 | -39.57643 | -68.09910 | 20155 ft | 408 kts | 179° |
| 2026-04-11 19:31 | -39.60462 | -68.09639 | 20730 ft | 410 kts | 180° |
| 2026-04-11 19:31 | -39.63322 | -68.09366 | 21295 ft | 411 kts | 180° |
| 2026-04-11 19:32 | -39.66162 | -68.09095 | 21844 ft | 412 kts | 180° |
| 2026-04-11 19:32 | -39.69985 | -68.08733 | 22558 ft | 414 kts | 180° |
| 2026-04-11 19:32 | -39.72846 | -68.08463 | 23077 ft | 415 kts | 180° |
| 2026-04-11 19:32 | -39.75718 | -68.08200 | 23574 ft | 416 kts | 176° |
| 2026-04-11 19:33 | -39.77631 | -68.08027 | 23860 ft | 418 kts | 176° |
| 2026-04-11 19:33 | -39.80542 | -68.07759 | 24271 ft | 421 kts | 176° |
| 2026-04-11 19:33 | -39.84445 | -68.07395 | 24823 ft | 425 kts | 176° |
| 2026-04-11 19:33 | -39.87398 | -68.07131 | 25224 ft | 428 kts | 176° |
| 2026-04-11 19:34 | -39.89388 | -68.06954 | 25487 ft | 429 kts | 176° |
| 2026-04-11 19:34 | -39.92364 | -68.06689 | 25870 ft | 432 kts | 176° |
| 2026-04-11 19:34 | -39.95362 | -68.06421 | 26242 ft | 434 kts | 176° |
| 2026-04-11 19:34 | -39.98374 | -68.06152 | 26604 ft | 437 kts | 176° |
| 2026-04-11 19:35 | -40.01404 | -68.05881 | 26958 ft | 439 kts | 176° |
| 2026-04-11 19:35 | -40.04471 | -68.05608 | 27302 ft | 441 kts | 176° |
| 2026-04-11 19:35 | -40.07528 | -68.05334 | 27635 ft | 444 kts | 176° |
| 2026-04-11 19:35 | -40.10605 | -68.05059 | 27960 ft | 446 kts | 176° |
| 2026-04-11 19:36 | -40.14732 | -68.04690 | 28379 ft | 449 kts | 176° |
| 2026-04-11 19:36 | -40.16796 | -68.04505 | 28580 ft | 450 kts | 176° |
| 2026-04-11 19:36 | -40.19929 | -68.04225 | 28881 ft | 452 kts | 176° |
| 2026-04-11 19:37 | -40.26254 | -68.03657 | 29454 ft | 456 kts | 176° |
| 2026-04-11 19:37 | -40.29421 | -68.03373 | 29728 ft | 458 kts | 176° |
| 2026-04-11 19:37 | -40.33662 | -68.02992 | 30133 ft | 459 kts | 176° |
| 2026-04-11 19:37 | -40.36819 | -68.02708 | 30592 ft | 456 kts | 176° |
| 2026-04-11 19:38 | -40.38912 | -68.02519 | 30865 ft | 455 kts | 176° |
| 2026-04-11 19:38 | -40.42048 | -68.02217 | 31221 ft | 454 kts | 175° |
| 2026-04-11 19:38 | -40.45199 | -68.01878 | 31596 ft | 453 kts | 175° |
| 2026-04-11 19:38 | -40.48329 | -68.01536 | 31940 ft | 452 kts | 175° |
| 2026-04-11 19:39 | -40.52466 | -68.01094 | 32386 ft | 451 kts | 175° |
| 2026-04-11 19:39 | -40.55596 | -68.00762 | 32711 ft | 450 kts | 175° |
| 2026-04-11 19:39 | -40.57661 | -68.00542 | 32923 ft | 450 kts | 175° |
| 2026-04-11 19:39 | -40.60764 | -68.00211 | 33236 ft | 449 kts | 175° |
| 2026-04-11 19:40 | -40.63860 | -67.99881 | 33542 ft | 449 kts | 175° |
| 2026-04-11 19:40 | -40.66961 | -67.99550 | 33841 ft | 448 kts | 175° |
| 2026-04-11 19:40 | -40.71086 | -67.99108 | 34233 ft | 447 kts | 175° |
| 2026-04-11 19:40 | -40.73170 | -67.98867 | 34426 ft | 447 kts | 175° |
| 2026-04-11 19:41 | -40.76253 | -67.98480 | 34709 ft | 446 kts | 174° |
| 2026-04-11 19:41 | -40.79322 | -67.98089 | 34983 ft | 446 kts | 174° |
| 2026-04-11 19:41 | -40.82390 | -67.97706 | 35252 ft | 445 kts | 174° |
| 2026-04-11 19:41 | -40.85476 | -67.97325 | 35516 ft | 445 kts | 174° |
| 2026-04-11 19:42 | -40.88538 | -67.96945 | 35773 ft | 444 kts | 174° |
| 2026-04-11 19:42 | -40.91621 | -67.96562 | 36026 ft | 444 kts | 174° |
| 2026-04-11 19:42 | -40.94679 | -67.96182 | 36262 ft | 443 kts | 174° |
| 2026-04-11 19:42 | -40.97743 | -67.95801 | 36481 ft | 443 kts | 174° |
| 2026-04-11 19:43 | -41.00801 | -67.95421 | 36696 ft | 443 kts | 174° |
| 2026-04-11 19:43 | -41.03859 | -67.95040 | 36904 ft | 443 kts | 174° |
| 2026-04-11 19:43 | -41.11044 | -67.94146 | 36999 ft | 447 kts | 175° |
| 2026-04-11 19:44 | -41.17215 | -67.93421 | 37000 ft | 443 kts | 175° |
| 2026-04-11 19:44 | -41.22307 | -67.92829 | 37000 ft | 442 kts | 175° |
| 2026-04-11 19:45 | -41.28425 | -67.92110 | 37000 ft | 443 kts | 175° |
| 2026-04-11 19:45 | -41.34579 | -67.91387 | 37000 ft | 444 kts | 175° |
| 2026-04-11 19:46 | -41.40714 | -67.90664 | 37000 ft | 443 kts | 175° |
| 2026-04-11 19:46 | -41.46851 | -67.89939 | 37000 ft | 443 kts | 175° |
| 2026-04-11 19:47 | -41.52975 | -67.89214 | 37000 ft | 443 kts | 175° |
| 2026-04-11 19:47 | -41.59124 | -67.88484 | 37000 ft | 443 kts | 175° |
| 2026-04-11 19:48 | -41.65252 | -67.87754 | 37000 ft | 443 kts | 175° |
| 2026-04-11 19:48 | -41.72397 | -67.86901 | 37000 ft | 443 kts | 175° |
| 2026-04-11 19:49 | -41.77512 | -67.86289 | 37000 ft | 443 kts | 175° |
| 2026-04-11 19:49 | -41.83623 | -67.85556 | 37000 ft | 443 kts | 175° |
| 2026-04-11 19:50 | -41.89751 | -67.84821 | 37000 ft | 443 kts | 175° |
| 2026-04-11 19:50 | -41.95880 | -67.84083 | 37000 ft | 443 kts | 175° |
| 2026-04-11 19:51 | -42.02018 | -67.83344 | 37000 ft | 443 kts | 175° |
| 2026-04-11 19:51 | -42.09162 | -67.82507 | 36997 ft | 443 kts | 175° |
| 2026-04-11 19:52 | -42.15283 | -67.81790 | 37000 ft | 443 kts | 175° |
| 2026-04-11 19:52 | -42.20404 | -67.81144 | 37000 ft | 443 kts | 175° |
| 2026-04-11 19:53 | -42.26518 | -67.80390 | 37000 ft | 443 kts | 175° |
| 2026-04-11 19:53 | -42.32645 | -67.79639 | 37000 ft | 443 kts | 175° |
| 2026-04-11 19:54 | -42.38769 | -67.78890 | 37000 ft | 443 kts | 175° |
| 2026-04-11 19:54 | -42.44929 | -67.78173 | 37000 ft | 443 kts | 175° |
| 2026-04-11 19:55 | -42.51051 | -67.77460 | 37000 ft | 443 kts | 175° |
| 2026-04-11 19:55 | -42.57175 | -67.76744 | 37000 ft | 443 kts | 175° |
| 2026-04-11 19:56 | -42.63318 | -67.76025 | 37000 ft | 443 kts | 175° |
| 2026-04-11 19:56 | -42.69450 | -67.75305 | 37000 ft | 443 kts | 175° |
| 2026-04-11 19:57 | -42.75578 | -67.74584 | 37000 ft | 443 kts | 175° |
| 2026-04-11 19:57 | -42.82725 | -67.73742 | 37000 ft | 443 kts | 175° |
| 2026-04-11 19:58 | -42.87831 | -67.73138 | 37000 ft | 443 kts | 175° |
| 2026-04-11 19:58 | -42.93937 | -67.72416 | 37000 ft | 443 kts | 175° |
| 2026-04-11 19:59 | -43.01070 | -67.71570 | 37000 ft | 443 kts | 175° |
| 2026-04-11 19:59 | -43.06181 | -67.70963 | 37000 ft | 443 kts | 175° |
| 2026-04-11 20:00 | -43.12296 | -67.70235 | 37000 ft | 443 kts | 175° |
| 2026-04-11 20:00 | -43.18400 | -67.69506 | 37000 ft | 443 kts | 175° |
| 2026-04-11 20:01 | -43.24508 | -67.68776 | 37000 ft | 443 kts | 175° |
| 2026-04-11 20:01 | -43.30654 | -67.68039 | 37000 ft | 443 kts | 175° |
| 2026-04-11 20:02 | -43.37786 | -67.67182 | 37000 ft | 443 kts | 175° |
| 2026-04-11 20:02 | -43.43887 | -67.66447 | 37000 ft | 443 kts | 175° |
| 2026-04-11 20:03 | -43.48988 | -67.65832 | 37000 ft | 443 kts | 175° |
| 2026-04-11 20:03 | -43.55093 | -67.65094 | 37000 ft | 443 kts | 175° |
| 2026-04-11 20:04 | -43.61199 | -67.64355 | 37000 ft | 443 kts | 175° |
| 2026-04-11 20:04 | -43.67301 | -67.63614 | 37000 ft | 443 kts | 175° |
| 2026-04-11 20:05 | -43.73426 | -67.62869 | 37000 ft | 443 kts | 175° |
| 2026-04-11 20:05 | -43.80544 | -67.61849 | 36999 ft | 443 kts | 170° |
| 2026-04-11 20:06 | -43.85510 | -67.60252 | 37000 ft | 443 kts | 166° |
| 2026-04-11 20:06 | -43.91486 | -67.58244 | 37000 ft | 443 kts | 167° |
| 2026-04-11 20:07 | -43.97448 | -67.56272 | 37000 ft | 443 kts | 167° |
| 2026-04-11 20:07 | -44.03400 | -67.54274 | 37000 ft | 443 kts | 167° |
| 2026-04-11 20:08 | -44.09353 | -67.52271 | 37000 ft | 443 kts | 167° |
| 2026-04-11 20:08 | -44.15342 | -67.50247 | 37000 ft | 443 kts | 167° |
| 2026-04-11 20:09 | -44.22292 | -67.47893 | 37000 ft | 443 kts | 167° |
| 2026-04-11 20:09 | -44.28247 | -67.45869 | 37000 ft | 443 kts | 167° |
| 2026-04-11 20:10 | -44.31224 | -67.44856 | 37000 ft | 443 kts | 167° |
| 2026-04-11 20:11 | -44.45126 | -67.40109 | 37000 ft | 443 kts | 167° |
| 2026-04-11 20:11 | -44.51074 | -67.38071 | 36758 ft | 441 kts | 167° |
| 2026-04-11 20:12 | -44.54066 | -67.37043 | 35837 ft | 446 kts | 167° |
| 2026-04-11 20:12 | -44.57061 | -67.36014 | 35014 ft | 447 kts | 167° |
| 2026-04-11 20:12 | -44.60052 | -67.34986 | 34403 ft | 443 kts | 166° |
| 2026-04-11 20:12 | -44.62867 | -67.34016 | 33878 ft | 438 kts | 166° |
| 2026-04-11 20:13 | -44.65806 | -67.33003 | 33293 ft | 434 kts | 166° |
| 2026-04-11 20:13 | -44.68715 | -67.32000 | 32721 ft | 430 kts | 166° |
| 2026-04-11 20:13 | -44.71599 | -67.31004 | 32150 ft | 426 kts | 166° |
| 2026-04-11 20:13 | -44.74468 | -67.30012 | 31580 ft | 422 kts | 166° |
| 2026-04-11 20:14 | -44.77291 | -67.29035 | 31016 ft | 418 kts | 166° |
| 2026-04-11 20:14 | -44.80272 | -67.28002 | 30418 ft | 414 kts | 166° |
| 2026-04-11 20:14 | -44.81392 | -67.27609 | 30196 ft | 412 kts | 169° |
| 2026-04-11 20:14 | -44.84120 | -67.26656 | 29837 ft | 402 kts | 169° |
| 2026-04-11 20:15 | -44.86823 | -67.25714 | 29048 ft | 403 kts | 169° |
| 2026-04-11 20:15 | -44.89513 | -67.24782 | 28440 ft | 399 kts | 169° |
| 2026-04-11 20:15 | -44.92208 | -67.23848 | 27450 ft | 399 kts | 169° |
| 2026-04-11 20:15 | -44.94706 | -67.22981 | 26519 ft | 398 kts | 169° |
| 2026-04-11 20:16 | -44.97428 | -67.22033 | 25499 ft | 398 kts | 169° |
| 2026-04-11 20:16 | -45.00087 | -67.21106 | 24501 ft | 398 kts | 169° |
| 2026-04-11 20:16 | -45.02677 | -67.20204 | 23547 ft | 404 kts | 169° |
| 2026-04-11 20:16 | -45.05338 | -67.19276 | 22568 ft | 409 kts | 169° |
| 2026-04-11 20:17 | -45.08085 | -67.18316 | 21569 ft | 414 kts | 169° |
| 2026-04-11 20:17 | -45.10868 | -67.17341 | 20569 ft | 417 kts | 169° |
| 2026-04-11 20:17 | -45.13642 | -67.16368 | 19578 ft | 420 kts | 169° |
| 2026-04-11 20:17 | -45.17383 | -67.15054 | 18250 ft | 422 kts | 169° |
| 2026-04-11 20:18 | -45.19251 | -67.14397 | 17589 ft | 423 kts | 169° |
| 2026-04-11 20:18 | -45.22057 | -67.13408 | 16566 ft | 413 kts | 169° |
| 2026-04-11 20:18 | -45.24771 | -67.12448 | 15574 ft | 399 kts | 169° |
| 2026-04-11 20:18 | -45.28272 | -67.11213 | 14241 ft | 385 kts | 169° |
| 2026-04-11 20:19 | -45.30002 | -67.10602 | 13565 ft | 379 kts | 169° |
| 2026-04-11 20:19 | -45.32512 | -67.09716 | 12565 ft | 372 kts | 168° |
| 2026-04-11 20:19 | -45.34977 | -67.08846 | 11565 ft | 365 kts | 168° |
| 2026-04-11 20:19 | -45.37394 | -67.07991 | 10567 ft | 359 kts | 169° |
| 2026-04-11 20:20 | -45.39751 | -67.07157 | 9580 ft | 355 kts | 169° |
| 2026-04-11 20:20 | -45.42106 | -67.06322 | 8580 ft | 351 kts | 169° |
| 2026-04-11 20:20 | -45.44434 | -67.05500 | 7581 ft | 347 kts | 169° |
| 2026-04-11 20:20 | -45.46761 | -67.04691 | 6625 ft | 341 kts | 169° |
| 2026-04-11 20:21 | -45.48975 | -67.03927 | 6342 ft | 316 kts | 169° |
| 2026-04-11 20:21 | -45.51034 | -67.03202 | 6080 ft | 297 kts | 170° |
| 2026-04-11 20:21 | -45.52999 | -67.02801 | 5786 ft | 278 kts | 186° |
| 2026-04-11 20:21 | -45.54787 | -67.03456 | 5479 ft | 262 kts | 213° |
| 2026-04-11 20:22 | -45.56342 | -67.04737 | 5147 ft | 259 kts | 214° |
| 2026-04-11 20:22 | -45.57927 | -67.05935 | 4811 ft | 258 kts | 212° |
| 2026-04-11 20:22 | -45.59518 | -67.07143 | 4479 ft | 259 kts | 213° |
| 2026-04-11 20:22 | -45.61098 | -67.08378 | 4211 ft | 257 kts | 213° |
| 2026-04-11 20:23 | -45.62625 | -67.09533 | 4122 ft | 246 kts | 213° |
| 2026-04-11 20:23 | -45.64101 | -67.10636 | 4040 ft | 237 kts | 213° |
| 2026-04-11 20:23 | -45.65533 | -67.11758 | 3964 ft | 231 kts | 214° |
| 2026-04-11 20:23 | -45.66905 | -67.12831 | 3789 ft | 221 kts | 214° |
| 2026-04-11 20:24 | -45.68203 | -67.13832 | 3726 ft | 206 kts | 214° |
| 2026-04-11 20:24 | -45.69852 | -67.15117 | 3652 ft | 203 kts | 216° |
| 2026-04-11 20:24 | -45.70686 | -67.15773 | 3610 ft | 206 kts | 214° |
| 2026-04-11 20:24 | -45.71948 | -67.16730 | 3530 ft | 203 kts | 214° |
| 2026-04-11 20:25 | -45.73182 | -67.17680 | 3537 ft | 203 kts | 214° |
| 2026-04-11 20:25 | -45.74389 | -67.18687 | 3534 ft | 202 kts | 225° |
| 2026-04-11 20:25 | -45.75200 | -67.20222 | 3478 ft | 193 kts | 256° |
| 2026-04-11 20:25 | -45.75371 | -67.22085 | 3174 ft | 189 kts | 271° |
| 2026-04-11 20:26 | -45.75547 | -67.23989 | 2716 ft | 197 kts | 262° |
| 2026-04-11 20:26 | -45.75797 | -67.25908 | 2380 ft | 194 kts | 265° |
| 2026-04-11 20:26 | -45.76028 | -67.27740 | 2306 ft | 183 kts | 264° |
| 2026-04-11 20:26 | -45.76343 | -67.30002 | 2091 ft | 168 kts | 264° |
| 2026-04-11 20:27 | -45.76485 | -67.31080 | 2013 ft | 163 kts | 264° |
| 2026-04-11 20:27 | -45.76684 | -67.32647 | 1930 ft | 158 kts | 264° |
| 2026-04-11 20:27 | -45.76885 | -67.34161 | 1692 ft | 152 kts | 263° |
| 2026-04-11 20:27 | -45.77091 | -67.35660 | 1489 ft | 151 kts | 265° |
| 2026-04-11 20:28 | -45.77265 | -67.37093 | 1299 ft | 148 kts | 265° |
| 2026-04-11 20:28 | -45.77468 | -67.38512 | 1084 ft | 145 kts | 264° |
| 2026-04-11 20:28 | -45.77644 | -67.39894 | 909 ft | 138 kts | 267° |
| 2026-04-11 20:28 | -45.77824 | -67.41277 | 731 ft | 140 kts | 266° |
| 2026-04-11 20:29 | -45.78010 | -67.42631 | 518 ft | 140 kts | 266° |
| 2026-04-11 20:29 | -45.78187 | -67.43979 | 343 ft | 139 kts | 266° |
| 2026-04-11 20:29 | -45.78371 | -67.45332 | 202 ft | 129 kts | 259° |
| 2026-04-11 20:29 | -45.78534 | -67.46644 | 392 ft | 141 kts | 265° |
| 2026-04-11 20:30 | -45.78707 | -67.47998 | 998 ft | 143 kts | 264° |
| 2026-04-11 20:30 | -45.78884 | -67.49457 | 1540 ft | 162 kts | 264° |
| 2026-04-11 20:30 | -45.79072 | -67.51098 | 2127 ft | 174 kts | 264° |
| 2026-04-11 20:30 | -45.79411 | -67.53453 | 2848 ft | 196 kts | 262° |
| 2026-04-11 20:31 | -45.79612 | -67.54757 | 3243 ft | 203 kts | 256° |
| 2026-04-11 20:31 | -45.80276 | -67.56619 | 3212 ft | 222 kts | 233° |
| 2026-04-11 20:31 | -45.81525 | -67.57841 | 3148 ft | 219 kts | 202° |
| 2026-04-11 20:31 | -45.83071 | -67.57843 | 3144 ft | 232 kts | 163° |
| 2026-04-11 20:32 | -45.84372 | -67.56546 | 3188 ft | 232 kts | 127° |
| 2026-04-11 20:32 | -45.84937 | -67.54454 | 2937 ft | 222 kts | 88° |
| 2026-04-11 20:32 | -45.84781 | -67.52351 | 2705 ft | 216 kts | 77° |
| 2026-04-11 20:32 | -45.84598 | -67.50194 | 2444 ft | 217 kts | 79° |
| 2026-04-11 20:33 | -45.84403 | -67.48081 | 2193 ft | 210 kts | 76° |
| 2026-04-11 20:33 | -45.84162 | -67.46074 | 1963 ft | 202 kts | 73° |
| 2026-04-11 20:33 | -45.83914 | -67.44085 | 2011 ft | 205 kts | 75° |
| 2026-04-11 20:33 | -45.83648 | -67.42072 | 1996 ft | 203 kts | 70° |
| 2026-04-11 20:34 | -45.83050 | -67.40386 | 1999 ft | 188 kts | 36° |
| 2026-04-11 20:34 | -45.81958 | -67.39581 | 1869 ft | 175 kts | 4° |
| 2026-04-11 20:34 | -45.80764 | -67.39391 | 1493 ft | 170 kts | 349° |
| 2026-04-11 20:34 | -45.79641 | -67.39781 | 1128 ft | 164 kts | 336° |
| 2026-04-11 20:35 | -45.78707 | -67.40423 | 967 ft | 135 kts | 323° |
| 2026-04-11 20:35 | -45.77988 | -67.41812 | 677 ft | 135 kts | 286° |
| 2026-04-11 20:35 | -45.78003 | -67.42697 | 574 ft | 137 kts | 263° |
| 2026-04-11 20:35 | -45.78199 | -67.44040 | 332 ft | 135 kts | 268° |
| 2026-04-11 20:36 | -45.78366 | -67.45330 | 197 ft | 123 kts | 264° |
| 2026-04-11 20:36 | -45.78510 | -67.46445 | 197 ft | 106 kts | 262° |
| 2026-04-11 20:36 | -45.78625 | -67.47345 | 197 ft | 79 kts | 257° |
| 2026-04-11 20:36 | -45.78710 | -67.48007 | 197 ft | 53 kts | 256° |
| 2026-04-11 20:37 | -45.78738 | -67.48256 | 197 ft | 6 kts | 200° |
| 2026-04-11 20:37 | -45.78771 | -67.48247 | 197 ft | 10 kts | 162° |
| 2026-04-11 20:37 | -45.78859 | -67.48219 | 197 ft | 15 kts | 168° |
| 2026-04-11 20:37 | -45.78927 | -67.48146 | 197 ft | 12 kts | 103° |
| 2026-04-11 20:38 | -45.78922 | -67.48039 | 197 ft | 10 kts | 77° |
| 2026-04-11 20:38 | -45.78908 | -67.47944 | 197 ft | 9 kts | 79° |
| 2026-04-11 20:38 | -45.78897 | -67.47860 | 197 ft | 8 kts | 78° |
| 2026-04-11 20:38 | -45.78887 | -67.47784 | 197 ft | 8 kts | 78° |
| 2026-04-11 20:39 | -45.78875 | -67.47699 | 197 ft | 12 kts | 78° |
| 2026-04-11 20:39 | -45.78858 | -67.47566 | 197 ft | 14 kts | 78° |
| 2026-04-11 20:39 | -45.78833 | -67.47367 | 197 ft | 16 kts | 79° |
| 2026-04-11 20:39 | -45.78819 | -67.47267 | 197 ft | 16 kts | 78° |
| 2026-04-11 20:40 | -45.78795 | -67.47083 | 197 ft | 21 kts | 78° |
| 2026-04-11 20:40 | -45.78775 | -67.46932 | 197 ft | 8 kts | 79° |
| 2026-04-11 20:40 | -45.78764 | -67.46852 | 197 ft | 8 kts | 79° |
| 2026-04-11 20:40 | -45.78767 | -67.46785 | 197 ft | 3 kts | 123° |
| 2026-04-11 20:41 | -45.78819 | -67.46788 | 197 ft | 14 kts | 192° |
| 2026-04-11 20:41 | -45.78907 | -67.46792 | 197 ft | 9 kts | 176° |
| 2026-04-11 20:41 | -45.78938 | -67.46795 | 197 ft | 4 kts | 204° |
| 2026-04-11 20:41 | -45.78950 | -67.46804 | 197 ft | 0 kts | 207° |